createdAt,value
2022-09-07T00:03:55.494Z,1.42
2022-09-07T00:07:58.295Z,1.42
2022-09-07T00:12:00.215Z,2.05
2022-09-07T00:16:24.620Z,1.90
2022-09-07T00:20:26.574Z,2.25
2022-09-07T00:24:28.577Z,1.90
2022-09-07T00:28:30.967Z,1.35
2022-09-07T00:32:33.115Z,1.38
2022-09-07T00:36:35.075Z,1.40
2022-09-07T00:40:37.005Z,3.00
2022-09-07T00:44:57.143Z,2.95
2022-09-07T00:49:05.126Z,2.33
2022-09-07T00:57:11.792Z,2.38
2022-09-07T01:01:14.723Z,2.35
2022-09-07T01:05:30.003Z,2.05
2022-09-07T01:09:32.353Z,2.60
2022-09-07T01:13:34.613Z,1.88
2022-09-07T01:17:42.357Z,1.70
2022-09-07T01:21:50.207Z,1.52
2022-09-07T01:26:01.541Z,1.60
2022-09-07T01:30:09.605Z,1.77
2022-09-07T01:34:18.576Z,1.20
2022-09-07T01:38:47.214Z,3.30
2022-09-07T01:47:03.968Z,1.48
2022-09-07T01:51:06.387Z,1.50
2022-09-07T01:55:19.386Z,2.45
2022-09-07T01:59:30.169Z,1.80
2022-09-07T02:03:38.403Z,1.40
2022-09-07T02:07:51.039Z,1.38
2022-09-07T02:11:54.740Z,1.30
2022-09-07T02:16:03.019Z,2.92
2022-09-07T02:20:16.890Z,3.10
2022-09-07T02:24:26.064Z,3.15
2022-09-07T02:28:39.315Z,1.88
2022-09-07T02:32:41.321Z,1.95
2022-09-07T02:36:50.338Z,2.50
2022-09-07T02:40:56.938Z,2.85
2022-09-07T02:44:59.857Z,3.05
2022-09-07T02:49:23.685Z,2.95
2022-09-07T02:53:25.559Z,3.47
2022-09-07T02:57:59.206Z,3.00
2022-09-07T03:02:05.783Z,2.55
2022-09-07T03:06:14.311Z,1.90
2022-09-07T03:10:17.696Z,2.53
2022-09-07T03:14:23.309Z,1.30
2022-09-07T03:18:26.731Z,1.75
2022-09-07T03:22:28.861Z,1.30
2022-09-07T03:26:30.765Z,1.40
2022-09-07T03:30:32.955Z,1.35
2022-09-07T03:34:35.670Z,2.00
2022-09-07T03:38:37.575Z,1.50
2022-09-07T03:42:39.872Z,1.80
2022-09-07T03:46:41.832Z,1.40
2022-09-07T03:50:43.725Z,2.40
2022-09-07T03:54:45.667Z,1.80
2022-09-07T03:58:49.086Z,1.60
2022-09-07T04:02:50.999Z,1.70
2022-09-07T04:06:52.951Z,1.80
2022-09-07T04:10:57.611Z,1.70
2022-09-07T04:14:59.554Z,2.25
2022-09-07T04:19:01.704Z,2.20
2022-09-07T04:23:03.637Z,2.33
2022-09-07T04:27:05.564Z,2.28
2022-09-07T04:31:07.618Z,2.22
2022-09-07T04:35:10.172Z,2.28
2022-09-07T04:39:12.319Z,2.17
2022-09-07T04:43:14.238Z,2.25
2022-09-07T04:47:16.268Z,2.60
2022-09-07T04:51:19.607Z,2.53
2022-09-07T04:55:21.512Z,2.60
2022-09-07T04:59:23.451Z,2.33
2022-09-07T05:03:25.344Z,2.40
2022-09-07T05:07:27.435Z,2.53
2022-09-07T05:11:30.129Z,1.90
2022-09-07T05:15:32.191Z,2.10
2022-09-07T05:19:34.203Z,1.85
2022-09-07T05:23:36.375Z,2.80
2022-09-07T05:27:38.484Z,3.10
2022-09-07T05:31:40.550Z,3.28
2022-09-07T05:35:42.471Z,3.80
2022-09-07T05:39:44.620Z,2.70
2022-09-07T05:48:09.033Z,2.13
2022-09-07T05:52:11.880Z,1.80
2022-09-07T05:56:14.269Z,2.30
2022-09-07T06:00:17.474Z,2.03
2022-09-07T06:04:19.655Z,2.95
2022-09-07T06:08:21.554Z,2.28
2022-09-07T06:12:23.479Z,2.13
2022-09-07T06:16:25.608Z,2.10
2022-09-07T06:20:27.709Z,2.55
2022-09-07T06:24:29.688Z,2.33
2022-09-07T06:28:32.799Z,2.88
2022-09-07T06:32:46.021Z,3.35
2022-09-07T06:36:48.168Z,3.60
2022-09-07T06:40:50.288Z,3.20
2022-09-07T06:44:52.224Z,3.20
2022-09-07T06:48:54.856Z,2.60
2022-09-07T06:57:18.620Z,2.60
2022-09-07T07:01:20.936Z,2.90
2022-09-07T07:05:22.931Z,2.97
2022-09-07T07:09:24.915Z,2.45
2022-09-07T07:13:27.544Z,2.78
2022-09-07T07:17:29.500Z,2.72
2022-09-07T07:21:48.516Z,2.78
2022-09-07T07:25:53.332Z,3.92
2022-09-07T07:29:55.340Z,2.80
2022-09-07T07:33:57.364Z,3.15
2022-09-07T07:42:21.390Z,3.70
2022-09-07T07:46:25.882Z,3.40
2022-09-07T07:50:31.835Z,3.42
2022-09-07T07:54:37.559Z,3.28
2022-09-07T07:58:39.796Z,3.28
2022-09-07T08:02:41.788Z,4.20
2022-09-07T08:06:43.770Z,4.68
2022-09-07T08:10:47.314Z,3.60
2022-09-07T08:14:49.221Z,3.90
2022-09-07T08:18:51.501Z,3.42
2022-09-07T08:22:53.355Z,3.40
2022-09-07T08:26:55.198Z,2.75
2022-09-07T08:30:58.099Z,3.13
2022-09-07T08:35:00.109Z,2.97
2022-09-07T08:39:02.606Z,2.80
2022-09-07T08:43:30.296Z,2.65
2022-09-07T08:47:47.128Z,2.80
2022-09-07T08:51:53.087Z,2.35
2022-09-07T08:56:09.691Z,2.40
2022-09-07T09:00:14.534Z,2.60
2022-09-07T09:04:28.643Z,2.00
2022-09-07T09:08:37.029Z,2.25
2022-09-07T09:12:59.723Z,1.95
2022-09-07T09:17:10.404Z,2.42
2022-09-07T09:21:18.787Z,1.40
2022-09-07T09:25:26.772Z,1.42
2022-09-07T09:29:28.651Z,2.08
2022-09-07T09:33:30.556Z,1.40
2022-09-07T09:37:38.177Z,1.85
2022-09-07T09:41:40.087Z,1.35
2022-09-07T09:55:23.611Z,1.45
2022-09-07T10:03:58.491Z,1.30
2022-09-07T10:08:06.435Z,0.90
2022-09-07T10:12:24.628Z,1.10
2022-09-07T10:16:44.258Z,1.00
2022-09-07T10:20:46.144Z,0.93
2022-09-07T10:24:48.592Z,0.90
2022-09-07T10:29:18.428Z,0.85
2022-09-07T10:33:24.691Z,0.90
2022-09-07T10:37:45.166Z,0.90
2022-09-07T10:42:02.390Z,0.88
2022-09-07T10:51:03.137Z,0.70
2022-09-07T10:55:32.787Z,0.75
2022-09-07T11:04:33.862Z,0.85
2022-09-07T11:13:09.504Z,0.90
2022-09-07T11:17:22.012Z,0.68
2022-09-07T11:26:11.951Z,0.80
2022-09-07T11:30:32.251Z,0.90
2022-09-07T11:34:40.315Z,0.80
2022-09-07T11:39:03.794Z,1.02
2022-09-07T11:43:13.677Z,1.00
2022-09-07T11:47:45.006Z,0.80
2022-09-07T11:52:06.975Z,0.80
2022-09-07T11:56:36.271Z,0.80
2022-09-07T12:00:55.716Z,0.95
2022-09-07T12:05:16.045Z,0.93
2022-09-07T12:09:55.645Z,0.90
2022-09-07T12:14:19.383Z,1.00
2022-09-07T12:18:21.206Z,1.23
2022-09-07T12:22:23.319Z,0.98
2022-09-07T12:26:34.557Z,0.85
2022-09-07T12:30:36.528Z,0.88
2022-09-07T12:34:49.501Z,0.95
2022-09-07T12:39:21.577Z,8.93
2022-09-07T12:43:23.448Z,1.42
2022-09-07T12:47:30.484Z,0.98
2022-09-07T12:56:34.155Z,0.90
2022-09-07T13:01:15.555Z,0.88
2022-09-07T13:05:20.584Z,0.98
2022-09-07T13:09:35.516Z,1.10
2022-09-07T13:18:00.859Z,0.90
2022-09-07T13:22:02.752Z,1.20
2022-09-07T13:26:08.700Z,1.15
2022-09-07T13:30:16.762Z,1.10
2022-09-07T13:34:45.704Z,4.47
2022-09-07T13:38:49.016Z,1.45
2022-09-07T13:42:52.361Z,1.73
2022-09-07T13:47:08.870Z,1.10
2022-09-07T13:51:29.305Z,1.00
2022-09-07T13:56:10.815Z,1.00
2022-09-07T14:00:16.888Z,1.15
2022-09-07T14:04:29.695Z,1.60
2022-09-07T14:08:31.567Z,1.40
2022-09-07T14:12:43.404Z,1.58
2022-09-07T14:16:53.228Z,1.45
2022-09-07T14:20:56.393Z,1.55
2022-09-07T14:25:01.410Z,2.15
2022-09-07T14:29:03.263Z,2.50
2022-09-07T14:33:20.262Z,2.00
2022-09-07T14:37:23.033Z,1.73
2022-09-07T14:41:29.153Z,2.10
2022-09-07T14:45:33.512Z,2.40
2022-09-07T14:49:35.564Z,2.72
2022-09-07T14:53:37.861Z,2.30
2022-09-07T14:57:39.757Z,1.80
2022-09-07T15:01:41.686Z,1.95
2022-09-07T15:05:49.569Z,1.77
2022-09-07T15:09:51.401Z,1.83
2022-09-07T15:14:10.075Z,1.65
2022-09-07T15:18:50.729Z,1.95
2022-09-07T15:22:52.590Z,2.00
2022-09-07T15:27:09.781Z,1.77
2022-09-07T15:35:34.878Z,1.80
2022-09-07T15:39:37.003Z,1.52
2022-09-07T15:43:39.395Z,1.20
2022-09-07T15:47:50.648Z,1.48
2022-09-07T15:52:08.181Z,1.48
2022-09-07T15:56:10.067Z,1.50
2022-09-07T16:00:12.676Z,1.38
2022-09-07T16:04:15.310Z,1.50
2022-09-07T16:08:25.116Z,1.30
2022-09-07T16:21:12.740Z,1.60
2022-09-07T16:25:14.702Z,1.23
2022-09-07T16:29:17.881Z,1.40
2022-09-07T16:33:20.012Z,1.10
2022-09-07T16:37:22.094Z,1.02
2022-09-07T16:41:31.100Z,1.20
2022-09-07T16:49:55.665Z,1.13
2022-09-07T16:53:58.925Z,1.30
2022-09-07T17:02:22.732Z,1.20
2022-09-07T17:06:27.214Z,1.00
2022-09-07T17:10:29.267Z,1.48
2022-09-07T17:14:31.595Z,1.10
2022-09-07T17:22:56.189Z,1.10
2022-09-07T17:26:59.419Z,1.30
2022-09-07T17:32:23.953Z,1.30
2022-09-07T17:35:37.574Z,1.92
2022-09-07T17:39:39.491Z,1.30
2022-09-07T17:43:45.718Z,1.50
2022-09-07T17:47:49.566Z,1.30
2022-09-07T17:51:51.499Z,1.20
2022-09-07T17:55:53.390Z,1.35
2022-09-07T18:00:11.858Z,2.03
2022-09-07T18:04:14.528Z,1.58
2022-09-07T18:08:16.367Z,1.10
2022-09-07T18:12:18.188Z,1.40
2022-09-07T18:16:29.593Z,1.38
2022-09-07T18:20:35.454Z,1.98
2022-09-07T18:24:37.456Z,1.40
2022-09-07T18:33:02.067Z,1.63
2022-09-07T18:37:04.659Z,1.25
2022-09-07T18:41:09.502Z,1.73
2022-09-07T18:45:27.530Z,1.50
2022-09-07T18:49:29.865Z,1.50
2022-09-07T18:53:33.655Z,1.60
2022-09-07T18:57:36.507Z,1.38
2022-09-07T19:01:38.700Z,1.70
2022-09-07T19:05:56.176Z,2.03
2022-09-07T19:09:58.301Z,1.60
2022-09-07T19:14:04.413Z,1.25
2022-09-07T19:18:07.988Z,1.65
2022-09-07T19:22:09.861Z,1.45
2022-09-07T19:26:11.952Z,1.50
2022-09-07T19:30:15.545Z,1.50
2022-09-07T19:34:17.508Z,1.58
2022-09-07T19:38:20.889Z,1.70
2022-09-07T19:42:24.041Z,1.90
2022-09-07T19:46:26.043Z,1.45
2022-09-07T19:50:27.947Z,1.70
2022-09-07T19:54:29.867Z,1.90
2022-09-07T19:58:39.784Z,1.58
2022-09-07T20:02:41.671Z,1.60
2022-09-07T20:06:43.691Z,1.40
2022-09-07T20:10:45.565Z,1.70
2022-09-07T20:14:47.417Z,1.63
2022-09-07T20:18:49.345Z,2.10
2022-09-07T20:22:51.337Z,2.63
2022-09-07T20:26:53.296Z,2.58
2022-09-07T20:30:55.663Z,3.00
2022-09-07T20:34:57.799Z,3.10
2022-09-07T20:38:59.629Z,3.45
2022-09-07T20:43:01.486Z,2.90
2022-09-07T20:47:03.442Z,2.58
2022-09-07T20:51:09.315Z,2.60
2022-09-07T20:55:11.147Z,3.10
2022-09-07T20:59:13.197Z,2.67
2022-09-07T21:03:15.011Z,1.92
2022-09-07T21:07:16.921Z,2.00
2022-09-07T21:11:27.760Z,2.63
2022-09-07T21:15:29.629Z,1.92
2022-09-07T21:19:31.572Z,2.05
2022-09-07T21:23:35.273Z,2.50
2022-09-07T21:27:38.820Z,2.70
2022-09-07T21:31:40.834Z,3.85
2022-09-07T21:35:42.719Z,2.40
2022-09-07T21:39:44.662Z,2.42
2022-09-07T21:43:46.872Z,1.95
2022-09-07T21:47:48.757Z,2.33
2022-09-07T21:51:50.644Z,1.77
2022-09-07T21:55:56.912Z,1.50
2022-09-07T21:59:58.776Z,1.20
2022-09-07T22:04:06.903Z,1.42
2022-09-07T22:08:08.775Z,1.33
2022-09-07T22:12:10.602Z,0.70
2022-09-07T22:16:13.887Z,0.75
2022-09-07T22:20:16.284Z,0.70
2022-09-07T22:24:18.279Z,0.85
2022-09-07T22:28:20.098Z,0.70
2022-09-07T22:32:22.002Z,1.08
2022-09-07T22:36:32.713Z,0.98
2022-09-07T22:40:34.561Z,1.10
2022-09-07T22:44:36.505Z,0.90
2022-09-07T22:48:39.593Z,0.63
2022-09-07T22:52:41.483Z,0.93
2022-09-07T22:56:43.412Z,0.70
2022-09-07T23:00:46.937Z,0.88
2022-09-07T23:04:48.863Z,0.90
2022-09-07T23:08:52.551Z,0.70
2022-09-07T23:12:54.606Z,0.80
2022-09-07T23:16:56.422Z,0.80
2022-09-07T23:21:00.643Z,0.80
2022-09-07T23:25:03.215Z,0.80
2022-09-07T23:29:05.590Z,0.80
2022-09-07T23:33:07.513Z,1.10
2022-09-07T23:37:09.673Z,0.88
2022-09-07T23:41:14.162Z,0.80
2022-09-07T23:45:16.146Z,0.77
2022-09-07T23:49:17.992Z,0.77
2022-09-07T23:53:20.399Z,0.60
2022-09-07T23:57:22.376Z,0.52
